Time;durP1;ratioP1;P1;durP2;ratioP2;P2;SDS_P1;SDS_P2;PMS_P1;PMS_P2;Temp;Humidity;BMP_temperature;BMP_pressure;BME280_temperature;BME280_humidity;BME280_pressure;Samples;Min_cycle;Max_cycle;Signal;HPM_P1;HPM_P2
2023/10/31 00:00:13;;;;;;;;;;;9.60;99.90;;;;;;5060410;28;19909;-75
2023/10/31 00:02:39;;;;;;;;;;;9.60;99.90;;;;;;5052917;28;20357;-76
2023/10/31 00:05:05;;;;;;;;;;;9.60;99.90;;;;;;5055752;28;20374;-74
2023/10/31 00:07:30;;;;;;;;;;;9.70;99.90;;;;;;5053718;28;19920;-76
2023/10/31 00:09:56;;;;;;;;;;;9.70;99.90;;;;;;5056190;28;19924;-75
2023/10/31 00:12:21;;;;;;;;;;;9.70;99.90;;;;;;5052609;28;20000;-75
2023/10/31 00:14:47;;;;;;;;;;;9.70;99.90;;;;;;5053138;28;19924;-74
2023/10/31 00:17:12;;;;;;;;;;;9.80;99.90;;;;;;5050153;28;19916;-77
2023/10/31 00:19:38;;;;;;;;;;;9.70;99.90;;;;;;5057676;28;20394;-76
2023/10/31 00:22:04;;;;;;;;;;;9.70;99.90;;;;;;5053692;28;20409;-76
2023/10/31 00:24:31;;;;;;;;;;;9.70;99.90;;;;;;5056766;28;19923;-77
2023/10/31 00:26:57;;;;;;;;;;;9.70;99.90;;;;;;5055371;28;20507;-75
2023/10/31 00:29:23;;;;;;;;;;;9.60;99.90;;;;;;5055718;28;19947;-74
2023/10/31 00:31:48;;;;;;;;;;;9.70;99.90;;;;;;5053775;28;19957;-75
2023/10/31 00:34:14;;;;;;;;;;;9.70;99.90;;;;;;5054895;28;20013;-74
2023/10/31 00:36:39;;;;;;;;;;;9.60;99.90;;;;;;5056502;28;19924;-75
2023/10/31 00:39:05;;;;;;;;;;;9.70;99.90;;;;;;5050726;28;19912;-75
2023/10/31 00:41:30;;;;;;;;;;;9.70;99.90;;;;;;5056640;28;19923;-75
2023/10/31 00:43:56;;;;;;;;;;;9.70;99.90;;;;;;5052067;28;20390;-74
2023/10/31 00:46:22;;;;;;;;;;;9.80;99.90;;;;;;5054955;28;19916;-74
2023/10/31 00:48:48;;;;;;;;;;;9.80;99.90;;;;;;5050797;28;20387;-75
2023/10/31 00:51:13;;;;;;;;;;;9.70;99.90;;;;;;5052453;28;19912;-77
2023/10/31 00:53:39;;;;;;;;;;;9.80;99.90;;;;;;5051171;28;20330;-75
2023/10/31 00:56:04;;;;;;;;;;;9.70;99.90;;;;;;5050376;28;19924;-75
2023/10/31 00:58:30;;;;;;;;;;;9.80;99.90;;;;;;5052537;28;19924;-73
2023/10/31 01:00:55;;;;;;;;;;;9.70;99.90;;;;;;5049930;28;20402;-76
2023/10/31 01:03:21;;;;;;;;;;;9.80;99.90;;;;;;5056641;28;20379;-78
2023/10/31 01:05:46;;;;;;;;;;;9.80;99.90;;;;;;5051717;28;19999;-76
2023/10/31 01:08:12;;;;;;;;;;;9.70;99.90;;;;;;5054214;28;19920;-74
2023/10/31 01:10:37;;;;;;;;;;;9.80;99.90;;;;;;5052430;28;19962;-76
2023/10/31 01:13:03;;;;;;;;;;;9.80;99.90;;;;;;5080793;28;19924;-77
2023/10/31 01:15:28;;;;;;;;;;;9.80;99.90;;;;;;5051637;28;20023;-75
2023/10/31 01:17:54;;;;;;;;;;;9.80;99.90;;;;;;5051959;28;20452;-75
2023/10/31 01:20:20;;;;;;;;;;;9.80;99.90;;;;;;5052075;28;19916;-75
2023/10/31 01:22:45;;;;;;;;;;;9.80;99.90;;;;;;5057268;28;20410;-77
2023/10/31 01:25:11;;;;;;;;;;;9.80;99.90;;;;;;5053247;28;19942;-75
2023/10/31 01:27:36;;;;;;;;;;;9.80;99.90;;;;;;5053259;28;19912;-75
2023/10/31 01:30:03;;;;;;;;;;;9.80;99.90;;;;;;5049024;28;20302;-75
2023/10/31 01:32:28;;;;;;;;;;;9.80;99.90;;;;;;5052744;28;20046;-76
2023/10/31 01:34:54;;;;;;;;;;;9.80;99.90;;;;;;5054726;28;20501;-76
2023/10/31 01:37:20;;;;;;;;;;;9.80;99.90;;;;;;5054016;28;20007;-76
2023/10/31 01:39:46;;;;;;;;;;;9.80;99.90;;;;;;5043558;28;19923;-77
2023/10/31 01:42:15;;;;;;;;;;;9.90;99.90;;;;;;5055764;28;19916;-77
2023/10/31 01:44:40;;;;;;;;;;;9.80;99.90;;;;;;5049087;28;19942;-76
2023/10/31 01:47:06;;;;;;;;;;;9.80;99.90;;;;;;5052364;28;19912;-77
2023/10/31 01:49:32;;;;;;;;;;;9.80;99.90;;;;;;5050704;28;19909;-76
2023/10/31 01:51:59;;;;;;;;;;;9.70;99.90;;;;;;5052348;28;20408;-73
2023/10/31 01:54:25;;;;;;;;;;;9.70;99.90;;;;;;5050585;28;19916;-76
2023/10/31 01:56:55;;;;;;;;;;;9.70;99.90;;;;;;5051069;28;19917;-76
2023/10/31 01:59:21;;;;;;;;;;;9.70;99.90;;;;;;5055656;28;19975;-75
2023/10/31 02:01:47;;;;;;;;;;;9.70;99.90;;;;;;5049944;28;19912;-77
2023/10/31 02:04:13;;;;;;;;;;;9.60;99.90;;;;;;5050783;28;20438;-75
2023/10/31 02:06:38;;;;;;;;;;;9.60;99.90;;;;;;5085227;28;20001;-74
2023/10/31 02:09:04;;;;;;;;;;;9.70;99.90;;;;;;5051126;28;19924;-75
2023/10/31 02:11:29;;;;;;;;;;;9.70;99.90;;;;;;5048048;28;19920;-75
2023/10/31 02:13:55;;;;;;;;;;;9.60;99.90;;;;;;5045475;28;20283;-75
2023/10/31 02:16:20;;;;;;;;;;;9.60;99.90;;;;;;5049322;28;20366;-74
2023/10/31 02:18:46;;;;;;;;;;;9.60;99.90;;;;;;5049489;28;20661;-76
2023/10/31 02:21:12;;;;;;;;;;;9.60;99.90;;;;;;5053887;28;19940;-74
2023/10/31 02:23:38;;;;;;;;;;;9.50;99.90;;;;;;5052622;28;20379;-75
2023/10/31 02:26:03;;;;;;;;;;;9.50;99.90;;;;;;5044838;28;19932;-74
2023/10/31 02:28:29;;;;;;;;;;;9.50;99.90;;;;;;5047011;28;19923;-74
2023/10/31 02:30:55;;;;;;;;;;;9.50;99.90;;;;;;5056762;28;20639;-75
2023/10/31 02:33:20;;;;;;;;;;;9.50;99.90;;;;;;5050653;28;19932;-76
2023/10/31 02:35:46;;;;;;;;;;;9.40;99.90;;;;;;5053649;28;19932;-75
2023/10/31 02:38:12;;;;;;;;;;;9.40;99.90;;;;;;5046810;28;19925;-75
2023/10/31 02:40:38;;;;;;;;;;;9.40;99.90;;;;;;5051661;28;19916;-75
2023/10/31 02:43:04;;;;;;;;;;;9.40;99.90;;;;;;5043209;28;20417;-76
2023/10/31 02:45:29;;;;;;;;;;;9.40;99.90;;;;;;5046960;28;19912;-74
2023/10/31 02:47:55;;;;;;;;;;;9.40;99.90;;;;;;5051292;28;19924;-73
2023/10/31 02:50:20;;;;;;;;;;;9.30;99.90;;;;;;5051372;28;19923;-74
2023/10/31 02:52:46;;;;;;;;;;;9.30;99.90;;;;;;5044027;28;19917;-76
2023/10/31 02:55:11;;;;;;;;;;;9.30;99.90;;;;;;5053841;28;19923;-75
2023/10/31 02:57:37;;;;;;;;;;;9.30;99.90;;;;;;5049669;28;19916;-75
2023/10/31 03:00:03;;;;;;;;;;;9.20;99.90;;;;;;5054838;28;19916;-73
2023/10/31 03:02:29;;;;;;;;;;;9.20;99.90;;;;;;5056402;28;20636;-75
2023/10/31 03:04:55;;;;;;;;;;;9.20;99.90;;;;;;5049732;28;20275;-76
2023/10/31 03:07:21;;;;;;;;;;;9.20;99.90;;;;;;5053880;28;20027;-75
2023/10/31 03:09:46;;;;;;;;;;;9.10;99.90;;;;;;5055714;28;20279;-75
2023/10/31 03:12:12;;;;;;;;;;;9.10;99.90;;;;;;5058806;28;19908;-75
2023/10/31 03:14:37;;;;;;;;;;;9.10;99.90;;;;;;5053884;28;19919;-75
2023/10/31 03:17:03;;;;;;;;;;;9.00;99.90;;;;;;5055174;28;20287;-74
2023/10/31 03:19:28;;;;;;;;;;;9.00;99.90;;;;;;5046872;28;19912;-75
2023/10/31 03:21:54;;;;;;;;;;;9.00;99.90;;;;;;5052692;28;19913;-74
2023/10/31 03:24:19;;;;;;;;;;;9.00;99.90;;;;;;5053860;28;19920;-75
2023/10/31 03:26:45;;;;;;;;;;;9.00;99.90;;;;;;5055272;28;19924;-75
2023/10/31 03:29:10;;;;;;;;;;;9.00;99.90;;;;;;5049126;28;19956;-76
2023/10/31 03:31:36;;;;;;;;;;;9.00;99.90;;;;;;5058627;28;19916;-75
2023/10/31 03:34:02;;;;;;;;;;;8.90;99.90;;;;;;5055985;28;20385;-74
2023/10/31 03:36:27;;;;;;;;;;;9.00;99.90;;;;;;5055619;28;19920;-74
2023/10/31 03:38:53;;;;;;;;;;;8.90;99.90;;;;;;5054239;28;19917;-75
2023/10/31 03:41:18;;;;;;;;;;;8.90;99.90;;;;;;5057395;28;19923;-74
2023/10/31 03:43:44;;;;;;;;;;;8.90;99.90;;;;;;5054690;28;19916;-76
2023/10/31 03:46:11;;;;;;;;;;;8.90;99.90;;;;;;5055224;28;19948;-75
2023/10/31 03:48:36;;;;;;;;;;;8.90;99.90;;;;;;5052165;28;19912;-76
2023/10/31 03:51:02;;;;;;;;;;;8.90;99.90;;;;;;5053335;28;19916;-74
2023/10/31 03:53:27;;;;;;;;;;;8.90;99.90;;;;;;5054757;28;19970;-74
2023/10/31 03:55:53;;;;;;;;;;;8.90;99.90;;;;;;5053927;28;20370;-75
2023/10/31 03:58:18;;;;;;;;;;;8.90;99.90;;;;;;5059010;28;20554;-74
2023/10/31 04:00:44;;;;;;;;;;;8.80;99.90;;;;;;5051758;28;20011;-77
2023/10/31 04:03:09;;;;;;;;;;;8.80;99.90;;;;;;5057114;28;20008;-75
2023/10/31 04:05:35;;;;;;;;;;;8.80;99.90;;;;;;5050495;28;20345;-76
2023/10/31 04:08:01;;;;;;;;;;;8.80;99.90;;;;;;5061124;28;19927;-76
2023/10/31 04:10:27;;;;;;;;;;;8.80;99.90;;;;;;5051384;28;19916;-75
2023/10/31 04:12:53;;;;;;;;;;;8.80;99.90;;;;;;5055962;28;19947;-74
2023/10/31 04:15:18;;;;;;;;;;;8.80;99.90;;;;;;5047442;28;19931;-75
2023/10/31 04:17:44;;;;;;;;;;;8.80;99.90;;;;;;5054426;28;19952;-75
2023/10/31 04:20:09;;;;;;;;;;;8.70;99.90;;;;;;5057393;28;19916;-76
2023/10/31 04:22:35;;;;;;;;;;;8.80;99.90;;;;;;5053475;28;20376;-77
2023/10/31 04:25:00;;;;;;;;;;;8.80;99.90;;;;;;5081150;28;19948;-75
2023/10/31 04:27:26;;;;;;;;;;;8.80;99.90;;;;;;5052580;28;19916;-76
2023/10/31 04:29:51;;;;;;;;;;;8.70;99.90;;;;;;5045578;28;19951;-75
2023/10/31 04:32:17;;;;;;;;;;;8.70;99.90;;;;;;5052720;28;19916;-74
2023/10/31 04:34:43;;;;;;;;;;;8.70;99.90;;;;;;5055656;28;19925;-74
2023/10/31 04:37:08;;;;;;;;;;;8.70;99.90;;;;;;5049134;28;19975;-74
2023/10/31 04:39:34;;;;;;;;;;;8.70;99.90;;;;;;5056587;28;19909;-76
2023/10/31 04:42:00;;;;;;;;;;;8.70;99.90;;;;;;5053188;28;19962;-77
2023/10/31 04:44:26;;;;;;;;;;;8.70;99.90;;;;;;5053145;28;19967;-74
2023/10/31 04:46:51;;;;;;;;;;;8.70;99.90;;;;;;5052771;28;19920;-75
2023/10/31 04:49:17;;;;;;;;;;;8.70;99.90;;;;;;5056173;28;20286;-75
2023/10/31 04:51:43;;;;;;;;;;;8.70;99.90;;;;;;5051970;28;20374;-76
2023/10/31 04:54:08;;;;;;;;;;;8.70;99.90;;;;;;5053873;28;19913;-75
2023/10/31 04:56:34;;;;;;;;;;;8.70;99.90;;;;;;5055308;28;19917;-77
2023/10/31 04:59:00;;;;;;;;;;;8.60;99.90;;;;;;5051507;28;19927;-75
2023/10/31 05:01:25;;;;;;;;;;;8.60;99.90;;;;;;5052067;28;19962;-75
2023/10/31 05:03:52;;;;;;;;;;;8.60;99.90;;;;;;5053160;28;19986;-75
2023/10/31 05:06:20;;;;;;;;;;;8.50;99.90;;;;;;5054983;28;20413;-74
2023/10/31 05:08:46;;;;;;;;;;;8.40;99.90;;;;;;5053861;28;19954;-75
2023/10/31 05:11:12;;;;;;;;;;;8.40;99.90;;;;;;5049771;28;19913;-76
2023/10/31 05:13:38;;;;;;;;;;;8.40;99.90;;;;;;5048675;28;20336;-76
2023/10/31 05:16:04;;;;;;;;;;;8.40;99.90;;;;;;5089200;28;19920;-74
2023/10/31 05:18:29;;;;;;;;;;;8.40;99.90;;;;;;5048165;28;19971;-77
2023/10/31 05:20:55;;;;;;;;;;;8.30;99.90;;;;;;5056018;28;19919;-75
2023/10/31 05:23:20;;;;;;;;;;;8.30;99.90;;;;;;5049463;28;19921;-75
2023/10/31 05:25:46;;;;;;;;;;;8.30;99.90;;;;;;5056267;28;20008;-74
2023/10/31 05:28:12;;;;;;;;;;;8.30;99.90;;;;;;5051587;28;19950;-75
2023/10/31 05:30:37;;;;;;;;;;;8.20;99.90;;;;;;5050101;28;19920;-74
2023/10/31 05:33:03;;;;;;;;;;;8.20;99.90;;;;;;5052344;28;20378;-74
2023/10/31 05:35:28;;;;;;;;;;;8.10;99.90;;;;;;5052676;28;19974;-74
2023/10/31 05:37:54;;;;;;;;;;;8.10;99.90;;;;;;5046688;28;19939;-74
2023/10/31 05:40:22;;;;;;;;;;;8.10;99.90;;;;;;5056656;28;19913;-75
2023/10/31 05:42:47;;;;;;;;;;;8.10;99.90;;;;;;5050088;28;20016;-73
2023/10/31 05:45:13;;;;;;;;;;;8.10;99.90;;;;;;5043563;28;20422;-74
2023/10/31 05:47:38;;;;;;;;;;;8.00;99.90;;;;;;5053309;28;20401;-74
2023/10/31 05:50:05;;;;;;;;;;;8.00;99.90;;;;;;5058526;28;20410;-74
2023/10/31 05:52:32;;;;;;;;;;;8.00;99.90;;;;;;5054130;28;19965;-75
2023/10/31 05:54:58;;;;;;;;;;;8.00;99.90;;;;;;5048927;28;20031;-74
2023/10/31 05:57:23;;;;;;;;;;;8.00;99.90;;;;;;5050263;28;19916;-74
2023/10/31 05:59:49;;;;;;;;;;;7.90;99.90;;;;;;5044695;28;19936;-75
2023/10/31 06:02:15;;;;;;;;;;;7.90;99.90;;;;;;5050360;28;20035;-74
2023/10/31 06:04:40;;;;;;;;;;;7.80;99.90;;;;;;5052313;28;19917;-77
2023/10/31 06:07:06;;;;;;;;;;;7.80;99.90;;;;;;5077634;28;19917;-75
2023/10/31 06:09:33;;;;;;;;;;;7.80;99.90;;;;;;5051332;28;19913;-74
2023/10/31 06:12:01;;;;;;;;;;;7.70;99.90;;;;;;5047057;28;19954;-73
2023/10/31 06:14:27;;;;;;;;;;;7.50;99.90;;;;;;5053666;28;19960;-75
2023/10/31 06:16:53;;;;;;;;;;;7.50;99.90;;;;;;5051091;28;20580;-75
2023/10/31 06:19:19;;;;;;;;;;;7.50;99.90;;;;;;5047504;28;19920;-75
2023/10/31 06:21:45;;;;;;;;;;;7.60;99.90;;;;;;5047295;28;19927;-74
2023/10/31 06:24:10;;;;;;;;;;;7.50;99.90;;;;;;5052791;28;19920;-73
2023/10/31 06:26:36;;;;;;;;;;;7.50;99.90;;;;;;5047267;28;19908;-75
2023/10/31 06:29:01;;;;;;;;;;;7.50;99.90;;;;;;5054380;28;20418;-74
2023/10/31 06:31:27;;;;;;;;;;;7.50;99.90;;;;;;5045271;28;19921;-75
2023/10/31 06:33:52;;;;;;;;;;;7.50;99.90;;;;;;5056111;28;19964;-75
2023/10/31 06:36:18;;;;;;;;;;;7.50;99.90;;;;;;5042833;28;20330;-75
2023/10/31 06:38:43;;;;;;;;;;;7.50;99.90;;;;;;5050668;28;19913;-75
2023/10/31 06:41:09;;;;;;;;;;;7.50;99.90;;;;;;5049874;28;20334;-76
2023/10/31 06:43:35;;;;;;;;;;;7.50;99.90;;;;;;5057489;28;19934;-75
2023/10/31 06:46:02;;;;;;;;;;;7.40;99.90;;;;;;5048612;28;19920;-74
2023/10/31 06:48:27;;;;;;;;;;;7.40;99.90;;;;;;5055564;28;20366;-75
2023/10/31 06:50:53;;;;;;;;;;;7.40;99.90;;;;;;5050829;28;19916;-79
2023/10/31 06:53:19;;;;;;;;;;;7.30;99.90;;;;;;5051646;28;19917;-74
2023/10/31 06:55:44;;;;;;;;;;;7.50;99.90;;;;;;5048106;28;20367;-76
2023/10/31 06:58:10;;;;;;;;;;;7.50;99.90;;;;;;5050570;28;19913;-75
2023/10/31 07:00:35;;;;;;;;;;;7.50;99.90;;;;;;5049601;28;19920;-74
2023/10/31 07:03:06;;;;;;;;;;;7.50;99.90;;;;;;5053272;28;19974;-74
2023/10/31 07:05:31;;;;;;;;;;;7.50;99.90;;;;;;5046562;28;19920;-77
2023/10/31 07:07:57;;;;;;;;;;;7.50;99.90;;;;;;5050090;28;19920;-74
2023/10/31 07:10:23;;;;;;;;;;;7.60;99.90;;;;;;5052304;28;20662;-76
2023/10/31 07:12:48;;;;;;;;;;;7.60;99.90;;;;;;5046438;28;19913;-76
2023/10/31 07:15:14;;;;;;;;;;;7.60;99.90;;;;;;5082185;28;19920;-75
2023/10/31 07:17:39;;;;;;;;;;;7.60;99.90;;;;;;5044802;28;19947;-75
2023/10/31 07:20:06;;;;;;;;;;;7.60;99.90;;;;;;5051946;28;19912;-75
2023/10/31 07:22:31;;;;;;;;;;;7.60;99.90;;;;;;5047103;28;19920;-76
2023/10/31 07:24:59;;;;;;;;;;;7.60;99.90;;;;;;5043534;28;19909;-74
2023/10/31 07:27:24;;;;;;;;;;;7.70;99.90;;;;;;5048124;28;21211;-76
2023/10/31 07:29:50;;;;;;;;;;;7.80;99.90;;;;;;5053606;28;19916;-77
2023/10/31 07:32:15;;;;;;;;;;;7.80;99.90;;;;;;5046684;28;20367;-76
2023/10/31 07:34:42;;;;;;;;;;;7.80;99.90;;;;;;5046649;28;19923;-78
2023/10/31 07:37:07;;;;;;;;;;;7.80;99.90;;;;;;5048988;28;19908;-77
2023/10/31 07:39:33;;;;;;;;;;;7.80;99.90;;;;;;5050683;28;19928;-77
2023/10/31 07:41:59;;;;;;;;;;;7.90;99.90;;;;;;5046890;28;19912;-78
2023/10/31 07:44:24;;;;;;;;;;;7.90;99.90;;;;;;5049448;28;19920;-82
2023/10/31 07:46:50;;;;;;;;;;;8.00;99.90;;;;;;5050234;28;19920;-80
2023/10/31 07:49:15;;;;;;;;;;;7.90;99.90;;;;;;5053627;28;19956;-77
2023/10/31 07:51:42;;;;;;;;;;;8.10;99.90;;;;;;5045423;28;19916;-76
2023/10/31 07:54:09;;;;;;;;;;;8.10;99.90;;;;;;5055592;28;19923;-77
2023/10/31 07:56:36;;;;;;;;;;;8.10;99.90;;;;;;5054378;28;20473;-79
2023/10/31 07:59:01;;;;;;;;;;;8.20;99.90;;;;;;5053755;28;19924;-77
2023/10/31 08:01:27;;;;;;;;;;;8.20;99.90;;;;;;5051250;28;20377;-76
2023/10/31 08:03:53;;;;;;;;;;;8.20;99.90;;;;;;5050782;28;20417;-76
2023/10/31 08:06:19;;;;;;;;;;;8.30;99.90;;;;;;5055279;28;19916;-79
2023/10/31 08:08:45;;;;;;;;;;;8.10;99.90;;;;;;5053811;28;20422;-87
2023/10/31 08:11:11;;;;;;;;;;;8.40;99.90;;;;;;5055125;28;19917;-80
2023/10/31 08:13:37;;;;;;;;;;;8.30;99.90;;;;;;5050663;28;20418;-86
2023/10/31 08:16:03;;;;;;;;;;;8.40;99.90;;;;;;5055704;28;20484;-86
2023/10/31 08:18:29;;;;;;;;;;;8.30;99.90;;;;;;5060228;28;19913;-85
2023/10/31 08:20:54;;;;;;;;;;;8.40;99.90;;;;;;5068693;28;20441;-90
2023/10/31 08:23:20;;;;;;;;;;;8.60;99.90;;;;;;5049774;28;20383;-89
2023/10/31 08:25:46;;;;;;;;;;;8.50;99.90;;;;;;5050771;28;19913;-89
2023/10/31 08:28:11;;;;;;;;;;;8.50;99.90;;;;;;5082689;28;19958;-90
2023/10/31 08:30:38;;;;;;;;;;;8.20;99.90;;;;;;5054210;28;19913;-77
2023/10/31 08:33:03;;;;;;;;;;;8.40;99.90;;;;;;5048718;28;20023;-79
2023/10/31 08:35:29;;;;;;;;;;;8.50;99.90;;;;;;5052063;28;20020;-80
2023/10/31 08:37:55;;;;;;;;;;;8.60;99.90;;;;;;5048751;28;19913;-85
2023/10/31 08:40:20;;;;;;;;;;;8.70;99.90;;;;;;5053941;28;20462;-83
2023/10/31 08:42:46;;;;;;;;;;;9.00;99.90;;;;;;5054966;28;19931;-81
2023/10/31 08:45:11;;;;;;;;;;;9.20;99.90;;;;;;5055754;28;19947;-82
2023/10/31 08:47:37;;;;;;;;;;;9.30;99.90;;;;;;5053998;28;20062;-86
2023/10/31 08:50:03;;;;;;;;;;;9.60;99.90;;;;;;5084814;28;19951;-83
2023/10/31 08:52:28;;;;;;;;;;;9.60;98.70;;;;;;5053671;28;19947;-82
2023/10/31 08:54:54;;;;;;;;;;;9.70;99.80;;;;;;5051019;28;20284;-80
2023/10/31 08:57:19;;;;;;;;;;;9.70;96.90;;;;;;5045875;28;19951;-77
2023/10/31 08:59:45;;;;;;;;;;;9.90;96.50;;;;;;5053022;28;19940;-78
2023/10/31 09:02:11;;;;;;;;;;;9.80;92.20;;;;;;5056626;28;19981;-78
2023/10/31 09:04:36;;;;;;;;;;;10.00;91.40;;;;;;5050778;28;19987;-80
2023/10/31 09:07:02;;;;;;;;;;;10.30;91.00;;;;;;5054350;28;19939;-78
2023/10/31 09:09:27;;;;;;;;;;;10.20;88.80;;;;;;5049679;28;19938;-79
2023/10/31 09:11:53;;;;;;;;;;;10.20;89.60;;;;;;5049619;28;19920;-77
2023/10/31 09:14:18;;;;;;;;;;;10.20;87.60;;;;;;5061241;28;19931;-77
2023/10/31 09:16:44;;;;;;;;;;;10.30;89.10;;;;;;5049058;28;19917;-81
2023/10/31 09:19:09;;;;;;;;;;;10.30;87.00;;;;;;5081182;28;19928;-82
2023/10/31 09:21:35;;;;;;;;;;;10.30;86.90;;;;;;5044513;28;20462;-80
2023/10/31 09:24:01;;;;;;;;;;;10.50;86.70;;;;;;5050094;28;19916;-79
2023/10/31 09:26:26;;;;;;;;;;;10.60;85.70;;;;;;5047847;28;19909;-80
2023/10/31 09:28:52;;;;;;;;;;;10.60;85.40;;;;;;5059887;28;20007;-81
2023/10/31 09:31:17;;;;;;;;;;;10.70;85.30;;;;;;5053801;28;19923;-77
2023/10/31 09:33:43;;;;;;;;;;;10.70;83.40;;;;;;5053471;28;19920;-79
2023/10/31 09:36:09;;;;;;;;;;;10.60;83.30;;;;;;5052455;28;19946;-79
2023/10/31 09:38:35;;;;;;;;;;;10.40;83.80;;;;;;5051215;28;19913;-78
2023/10/31 09:41:01;;;;;;;;;;;10.40;83.20;;;;;;5046016;28;20422;-82
2023/10/31 09:43:26;;;;;;;;;;;10.60;84.00;;;;;;5050945;28;19916;-81
2023/10/31 09:45:52;;;;;;;;;;;10.70;83.30;;;;;;5049061;28;20291;-78
2023/10/31 09:48:19;;;;;;;;;;;10.80;82.70;;;;;;5051272;28;19960;-78
2023/10/31 09:50:45;;;;;;;;;;;10.90;82.20;;;;;;5046632;28;19917;-78
2023/10/31 09:53:11;;;;;;;;;;;11.00;82.80;;;;;;5049583;28;19925;-80
2023/10/31 09:55:37;;;;;;;;;;;10.90;81.40;;;;;;5049249;28;19920;-81
2023/10/31 09:58:02;;;;;;;;;;;10.90;80.80;;;;;;5046953;28;19916;-77
2023/10/31 10:00:28;;;;;;;;;;;11.00;82.30;;;;;;5055980;28;19936;-79
2023/10/31 10:02:54;;;;;;;;;;;11.10;80.90;;;;;;5052821;28;19920;-79
2023/10/31 10:05:20;;;;;;;;;;;11.10;81.40;;;;;;5051110;28;19913;-78
2023/10/31 10:07:46;;;;;;;;;;;10.80;80.00;;;;;;5053135;28;19916;-79
2023/10/31 10:10:12;;;;;;;;;;;10.90;82.00;;;;;;5050022;28;20271;-81
2023/10/31 10:12:38;;;;;;;;;;;10.80;80.90;;;;;;5045602;28;19961;-84
2023/10/31 10:15:04;;;;;;;;;;;11.00;81.70;;;;;;5050836;28;20015;-79
2023/10/31 10:17:30;;;;;;;;;;;11.20;81.90;;;;;;5046740;28;20386;-82
2023/10/31 10:20:09;;;;;;;;;;;11.20;80.40;;;;;;5050419;28;19913;-83
2023/10/31 10:22:42;;;;;;;;;;;11.20;80.30;;;;;;5045775;28;19932;-83
2023/10/31 10:25:08;;;;;;;;;;;11.10;80.00;;;;;;5048408;28;20008;-81
2023/10/31 10:27:34;;;;;;;;;;;11.10;80.30;;;;;;5047405;28;19977;-85
2023/10/31 10:29:59;;;;;;;;;;;11.00;80.80;;;;;;5050668;28;19916;-81
2023/10/31 10:32:25;;;;;;;;;;;11.00;81.40;;;;;;5049940;28;19917;-82
2023/10/31 10:34:50;;;;;;;;;;;11.10;82.50;;;;;;5070286;28;19925;-81
2023/10/31 10:37:18;;;;;;;;;;;11.40;81.60;;;;;;5046933;28;19960;-83
2023/10/31 10:39:47;;;;;;;;;;;11.60;80.60;;;;;;5050827;28;19919;-85
2023/10/31 10:42:16;;;;;;;;;;;11.30;79.10;;;;;;5049121;28;20004;-80
2023/10/31 10:44:43;;;;;;;;;;;11.30;80.00;;;;;;5048763;28;19919;-83
2023/10/31 10:47:11;;;;;;;;;;;11.10;79.70;;;;;;5048018;28;19912;-83
2023/10/31 10:49:37;;;;;;;;;;;11.20;79.90;;;;;;5049980;28;19913;-83
2023/10/31 10:52:09;;;;;;;;;;;11.50;81.70;;;;;;5048445;28;19913;-82
2023/10/31 10:54:44;;;;;;;;;;;11.90;80.30;;;;;;5049007;28;20421;-81
2023/10/31 10:57:09;;;;;;;;;;;12.10;79.40;;;;;;5051544;28;19938;-80
2023/10/31 10:59:40;;;;;;;;;;;11.90;78.20;;;;;;5052137;28;19908;-80
2023/10/31 11:02:06;;;;;;;;;;;11.90;79.20;;;;;;5041995;28;19919;-83
2023/10/31 11:04:32;;;;;;;;;;;11.70;79.30;;;;;;5042865;28;19908;-84
2023/10/31 11:06:58;;;;;;;;;;;11.60;80.30;;;;;;5048460;28;19921;-78
2023/10/31 11:09:25;;;;;;;;;;;11.30;79.90;;;;;;5050931;28;19961;-81
2023/10/31 11:11:50;;;;;;;;;;;11.30;81.30;;;;;;5045608;28;19921;-77
2023/10/31 11:14:17;;;;;;;;;;;11.10;81.00;;;;;;5047388;28;19913;-77
2023/10/31 11:16:44;;;;;;;;;;;11.00;83.00;;;;;;5050293;28;19920;-77
2023/10/31 11:19:10;;;;;;;;;;;10.80;85.10;;;;;;5049375;28;19921;-80
2023/10/31 11:21:35;;;;;;;;;;;10.80;88.50;;;;;;5049976;28;19948;-88
2023/10/31 11:24:01;;;;;;;;;;;10.80;88.70;;;;;;5047763;28;19952;-86
2023/10/31 11:26:28;;;;;;;;;;;10.50;90.30;;;;;;5052648;28;20035;-88
2023/10/31 11:29:02;;;;;;;;;;;10.50;90.60;;;;;;5055643;28;20012;-87
2023/10/31 11:31:28;;;;;;;;;;;10.60;91.70;;;;;;5057948;28;19912;-88
2023/10/31 11:33:54;;;;;;;;;;;10.60;91.70;;;;;;5054208;28;20544;-86
2023/10/31 11:36:20;;;;;;;;;;;10.80;92.30;;;;;;5053761;28;19924;-90
2023/10/31 11:38:46;;;;;;;;;;;10.60;90.90;;;;;;5052523;28;20487;-89
2023/10/31 11:41:12;;;;;;;;;;;10.40;91.20;;;;;;5050010;28;19919;-89
2023/10/31 11:43:40;;;;;;;;;;;10.30;91.10;;;;;;5052502;28;19913;-81
2023/10/31 11:46:18;;;;;;;;;;;10.30;90.70;;;;;;5048962;28;19960;-81
2023/10/31 11:48:53;;;;;;;;;;;10.50;91.10;;;;;;5052220;28;19934;-80
2023/10/31 11:51:19;;;;;;;;;;;10.50;90.90;;;;;;5055099;28;19917;-80
2023/10/31 11:53:45;;;;;;;;;;;10.60;91.30;;;;;;5051384;28;19912;-81
2023/10/31 11:56:11;;;;;;;;;;;10.60;91.00;;;;;;5055152;28;20367;-77
2023/10/31 11:58:37;;;;;;;;;;;10.60;90.50;;;;;;5049186;28;19915;-77
2023/10/31 12:01:04;;;;;;;;;;;10.60;90.60;;;;;;5056434;28;20380;-76
2023/10/31 12:03:37;;;;;;;;;;;10.70;90.40;;;;;;5055160;28;20018;-75
2023/10/31 12:06:03;;;;;;;;;;;10.80;90.50;;;;;;5060940;28;19919;-75
2023/10/31 12:08:30;;;;;;;;;;;10.80;89.50;;;;;;5086103;28;19913;-75
2023/10/31 12:11:18;;;;;;;;;;;10.70;90.10;;;;;;5053636;28;19919;-76
2023/10/31 12:13:57;;;;;;;;;;;10.70;89.80;;;;;;5054924;28;19919;-77
2023/10/31 12:16:24;;;;;;;;;;;10.50;89.60;;;;;;5051435;28;19921;-77
2023/10/31 12:18:54;;;;;;;;;;;10.70;89.40;;;;;;5045903;28;19967;-79
2023/10/31 12:21:19;;;;;;;;;;;10.80;88.30;;;;;;5047072;28;20729;-85
2023/10/31 12:23:45;;;;;;;;;;;11.30;88.80;;;;;;5054498;28;19916;-82
2023/10/31 12:26:11;;;;;;;;;;;11.50;86.60;;;;;;5050757;28;19924;-84
2023/10/31 12:28:38;;;;;;;;;;;11.60;86.00;;;;;;5053856;28;19961;-83
2023/10/31 12:31:03;;;;;;;;;;;11.70;83.30;;;;;;5050888;28;19908;-85
2023/10/31 12:33:29;;;;;;;;;;;11.50;83.70;;;;;;5078387;28;19935;-82
2023/10/31 12:35:58;;;;;;;;;;;11.60;85.00;;;;;;5057150;28;20386;-79
2023/10/31 12:38:24;;;;;;;;;;;11.60;85.70;;;;;;5052517;28;19963;-80
2023/10/31 12:40:49;;;;;;;;;;;11.60;83.90;;;;;;5049402;28;19913;-84
2023/10/31 12:43:15;;;;;;;;;;;11.70;83.90;;;;;;5044311;28;19920;-85
2023/10/31 12:45:41;;;;;;;;;;;11.90;82.40;;;;;;5051035;28;19916;-79
2023/10/31 12:48:08;;;;;;;;;;;12.30;82.50;;;;;;5048914;28;19919;-78
2023/10/31 12:50:36;;;;;;;;;;;12.30;80.50;;;;;;5054262;28;19923;-80
2023/10/31 12:53:03;;;;;;;;;;;12.20;81.10;;;;;;5056701;28;19927;-77
2023/10/31 12:55:29;;;;;;;;;;;12.50;80.10;;;;;;5054962;28;19974;-79
2023/10/31 12:57:56;;;;;;;;;;;12.20;77.70;;;;;;5056661;28;19917;-79
2023/10/31 13:00:25;;;;;;;;;;;12.10;80.70;;;;;;5052282;28;19913;-76
2023/10/31 13:02:52;;;;;;;;;;;11.90;81.70;;;;;;5045753;28;20007;-78
2023/10/31 13:05:17;;;;;;;;;;;11.60;79.20;;;;;;5049846;28;19909;-80
2023/10/31 13:07:51;;;;;;;;;;;11.60;80.80;;;;;;5046077;28;20394;-79
2023/10/31 13:10:16;;;;;;;;;;;11.50;80.00;;;;;;5050137;28;19916;-79
2023/10/31 13:12:48;;;;;;;;;;;11.50;80.30;;;;;;5052480;28;20393;-79
2023/10/31 13:15:14;;;;;;;;;;;11.60;81.20;;;;;;5049725;28;19921;-81
2023/10/31 13:17:43;;;;;;;;;;;11.60;81.20;;;;;;5055027;28;20715;-79
2023/10/31 13:20:09;;;;;;;;;;;11.60;82.60;;;;;;5055494;28;20110;-79
2023/10/31 13:22:35;;;;;;;;;;;11.70;83.10;;;;;;5051950;28;19912;-80
2023/10/31 13:25:04;;;;;;;;;;;12.00;82.90;;;;;;5054259;28;19924;-81
2023/10/31 13:27:51;;;;;;;;;;;12.30;80.20;;;;;;5048423;28;19908;-79
2023/10/31 13:30:17;;;;;;;;;;;12.50;81.90;;;;;;5048874;28;19930;-80
2023/10/31 13:32:43;;;;;;;;;;;12.80;81.50;;;;;;5046944;28;19920;-80
2023/10/31 13:35:12;;;;;;;;;;;12.60;78.50;;;;;;5051683;28;20715;-78
2023/10/31 13:37:37;;;;;;;;;;;12.50;78.40;;;;;;5049868;28;19936;-78
2023/10/31 13:40:03;;;;;;;;;;;12.20;78.40;;;;;;5048481;28;19908;-76
2023/10/31 13:42:29;;;;;;;;;;;12.30;79.60;;;;;;5052285;28;19913;-82
2023/10/31 13:44:54;;;;;;;;;;;12.50;80.00;;;;;;5051631;28;19966;-78
2023/10/31 13:47:20;;;;;;;;;;;12.60;78.50;;;;;;5045247;28;19912;-81
2023/10/31 13:49:46;;;;;;;;;;;12.40;79.30;;;;;;5052143;28;20003;-89
2023/10/31 13:52:12;;;;;;;;;;;12.50;80.60;;;;;;5050378;28;21241;-89
2023/10/31 13:54:37;;;;;;;;;;;12.10;80.80;;;;;;5043298;28;20409;-86
2023/10/31 13:57:03;;;;;;;;;;;11.70;81.40;;;;;;5048194;28;19959;-89
2023/10/31 13:59:29;;;;;;;;;;;11.80;81.20;;;;;;5047727;28;19913;-89
2023/10/31 14:01:55;;;;;;;;;;;11.50;81.20;;;;;;5051281;28;20010;-90
2023/10/31 14:04:20;;;;;;;;;;;11.70;81.60;;;;;;5046347;28;20359;-89
2023/10/31 14:06:46;;;;;;;;;;;11.80;81.10;;;;;;5044280;28;19919;-90
2023/10/31 14:09:12;;;;;;;;;;;11.70;81.50;;;;;;5049075;28;19956;-88
2023/10/31 14:11:38;;;;;;;;;;;11.50;81.30;;;;;;5047342;28;19943;-89
2023/10/31 14:14:06;;;;;;;;;;;11.30;80.30;;;;;;5053087;28;19912;-89
2023/10/31 14:16:35;;;;;;;;;;;11.10;81.10;;;;;;5047968;28;19928;-83
2023/10/31 14:19:02;;;;;;;;;;;11.10;82.00;;;;;;5052056;28;19922;-88